METAR

Letisková meteorologická správa METAR

Meteorologické informácie z ďalších profesionálnych meteorologických staníc SHMÚ zobrazené v tvare zodpovedajúcom pravidlám kódovania správ METAR sú uvedené v položke „METSYN

Informácie o správe METAR

19.09.2018 - 01:00 UTC

METAR LZIB 190100Z 03005KT CAVOK 13/09 Q1020=
METAR LZKZ 190100Z 03002KT CAVOK 12/09 Q1022=
METAR LZPP 190100Z AUTO 32005KT 9999 NCD 11/10 Q1021=
METAR LZSL 190100Z 00000KT 9999 5000S FEW003 09/07 Q1023=
METAR LZTT 190100Z 25005KT 220V280 CAVOK 09/08 Q1023=
METAR LZZI 190100Z 07001KT CAVOK 10/09 Q1022=

19.09.2018 - 00:30 UTC

METAR LZIB 190030Z 03005KT CAVOK 13/10 Q1020=
METAR LZKZ 190030Z 32002KT CAVOK 12/09 Q1022=
METAR LZPP 190030Z AUTO 36004KT 320V030 9999 NCD 12/10 Q1020=
METAR LZSL 190030Z 00000KT 7000 NSC 09/07 Q1023=
METAR LZTT 190030Z 22005KT CAVOK 09/08 Q1023=
METAR LZZI 190030Z VRB01KT CAVOK 10/09 Q1022=

Údaje nie sú momentálne k dispozícii

skok na menu ↑


skok na začiatok stránky ↑